Time;durP1;ratioP1;P1;durP2;ratioP2;P2;SDS_P1;SDS_P2;PMS_P1;PMS_P2;Temp;Humidity;BMP_temperature;BMP_pressure;BME280_temperature;BME280_humidity;BME280_pressure;Samples;Min_cycle;Max_cycle;Signal;HPM_P1;HPM_P2
2022/04/17 00:02:10;;;;;;;11.68;6.75;;;2.20;99.90;;;0.69;82.62;103014.13;4912443;28;20042;-78
2022/04/17 00:04:36;;;;;;;12.38;6.72;;;2.20;99.90;;;0.68;82.80;103014.97;4897631;28;20023;-77
2022/04/17 00:07:02;;;;;;;13.43;6.60;;;2.20;99.90;;;0.64;82.71;103006.22;4912424;28;20027;-79
2022/04/17 00:09:30;;;;;;;12.05;6.53;;;2.20;99.90;;;0.64;83.53;103005.34;4910064;28;20101;-78
2022/04/17 00:11:56;;;;;;;14.93;7.13;;;2.20;99.90;;;0.57;83.21;103001.69;4894979;28;20035;-79
2022/04/17 00:14:22;;;;;;;14.63;6.60;;;2.10;99.90;;;0.54;82.96;102989.50;4911733;28;20060;-78
2022/04/17 00:16:48;;;;;;;12.63;6.60;;;2.10;99.90;;;0.48;82.84;102994.50;4927384;28;20037;-77
2022/04/17 00:19:13;;;;;;;12.77;6.38;;;2.00;99.90;;;0.42;82.44;102986.53;4928546;28;20411;-78
2022/04/17 00:21:40;;;;;;;10.52;5.57;;;2.00;99.90;;;0.37;82.89;102993.28;4919611;28;22481;-78
2022/04/17 00:24:05;;;;;;;9.90;5.18;;;1.90;99.90;;;0.30;83.03;102979.25;4916130;28;20074;-77
2022/04/17 00:26:31;;;;;;;10.70;5.43;;;1.90;99.90;;;0.26;83.21;102984.25;4914159;28;20034;-77
2022/04/17 00:28:59;;;;;;;8.48;5.03;;;1.80;99.90;;;0.19;83.54;102980.59;4924505;28;20023;-78
2022/04/17 00:31:25;;;;;;;7.35;4.32;;;1.80;99.90;;;0.12;83.51;102970.88;4894310;28;20030;-78
2022/04/17 00:33:51;;;;;;;8.48;5.32;;;1.70;99.90;;;0.07;83.64;102965.53;4896051;28;20558;-77
2022/04/17 00:36:17;;;;;;;15.57;7.15;;;1.70;99.90;;;0.06;83.96;102963.75;4907263;28;20574;-77
2022/04/17 00:38:42;;;;;;;16.50;6.43;;;1.70;99.90;;;0.07;84.45;102959.50;4936059;28;20673;-77
2022/04/17 00:41:08;;;;;;;13.23;6.28;;;1.60;99.90;;;0.06;85.06;102957.72;4894807;28;20594;-78
2022/04/17 00:43:46;;;;;;;11.60;6.13;;;1.70;99.90;;;0.07;86.26;102957.78;4899519;28;20046;-78
2022/04/17 00:46:13;;;;;;;14.88;6.53;;;1.60;99.90;;;0.07;86.82;102962.06;4915813;28;20022;-77
2022/04/17 00:48:41;;;;;;;14.63;6.57;;;1.60;99.90;;;0.06;86.97;102953.41;4918296;28;20041;-77
2022/04/17 00:51:09;;;;;;;11.15;6.47;;;1.60;99.90;;;0.04;86.87;102956.78;4883494;28;20042;-78
2022/04/17 00:53:37;;;;;;;12.43;6.45;;;1.60;99.90;;;0.02;87.02;102950.66;4908991;28;20076;-77
2022/04/17 00:56:04;;;;;;;13.52;7.03;;;1.60;99.90;;;-0.01;87.07;102947.16;4925387;28;20114;-78
2022/04/17 00:58:33;;;;;;;13.68;6.22;;;1.60;99.90;;;-0.01;87.65;102943.69;4932320;28;20030;-77
2022/04/17 01:00:59;;;;;;;10.85;6.13;;;1.60;99.90;;;-0.01;87.69;102941.09;4884570;28;20031;-77
2022/04/17 01:03:28;;;;;;;15.75;6.53;;;1.60;99.90;;;0.01;88.61;102943.75;4935085;28;20030;-78
2022/04/17 01:05:54;;;;;;;14.82;7.13;;;1.60;99.90;;;0.02;88.90;102937.72;4901370;28;20035;-77
2022/04/17 01:08:20;;;;;;;16.02;7.13;;;1.60;99.90;;;0.02;89.59;102928.22;4913642;28;20109;-78
2022/04/17 01:10:46;;;;;;;17.50;6.60;;;1.60;99.90;;;0.01;89.61;102931.66;4905677;28;20024;-77
2022/04/17 01:13:16;;;;;;;13.88;6.57;;;1.60;99.90;;;-0.02;89.69;102929.84;4919847;28;22861;-78
2022/04/17 01:15:44;;;;;;;12.45;7.00;;;1.50;99.90;;;-0.05;89.33;102928.88;4919151;28;20033;-78
2022/04/17 01:18:10;;;;;;;14.57;6.40;;;1.50;99.90;;;-0.10;89.48;102930.44;4894087;28;20110;-78
2022/04/17 01:20:38;;;;;;;9.98;5.57;;;1.50;99.90;;;-0.15;89.06;102929.38;4944152;28;20650;-77
2022/04/17 01:28:33;;;;;;;16.38;6.35;;;1.30;99.90;;;-0.33;89.06;102933.13;4913486;28;20465;-77
2022/04/17 01:30:59;;;;;;;14.63;7.28;;;1.30;99.90;;;-0.36;89.42;102929.56;4916666;28;20026;-76
2022/04/17 01:33:25;;;;;;;15.05;6.93;;;1.20;99.90;;;-0.38;89.05;102926.94;4887003;28;20039;-77
2022/04/17 01:35:51;;;;;;;16.55;8.05;;;1.20;99.90;;;-0.39;89.05;102924.28;4928444;28;20074;-77
2022/04/17 01:38:19;;;;;;;14.98;8.32;;;1.20;99.90;;;-0.40;88.96;102928.59;4880989;28;20030;-77
2022/04/17 01:40:45;;;;;;;17.75;8.55;;;1.20;99.90;;;-0.42;89.60;102925.06;4920174;28;20062;-77
2022/04/17 01:43:11;;;;;;;17.05;8.20;;;1.20;99.90;;;-0.40;91.04;102918.22;4896981;28;20023;-77
2022/04/17 01:45:38;;;;;;;17.05;7.88;;;1.20;99.90;;;-0.38;91.73;102921.75;4899852;23;20051;-77
2022/04/17 01:48:05;;;;;;;13.77;7.97;;;1.20;99.90;;;-0.37;91.27;102915.72;4955719;28;20447;-77
2022/04/17 01:50:33;;;;;;;12.90;7.35;;;1.20;99.90;;;-0.38;90.75;102911.41;4972027;28;20035;-77
2022/04/17 01:53:02;;;;;;;13.65;7.50;;;1.20;99.90;;;-0.39;90.42;102912.22;4945642;28;20081;-77
2022/04/17 01:55:29;;;;;;;14.70;7.78;;;1.20;99.90;;;-0.39;91.32;102906.16;4938619;28;20018;-77
2022/04/17 01:57:58;;;;;;;16.58;8.20;;;1.20;99.90;;;-0.38;91.74;102903.63;4927791;28;20046;-76
2022/04/17 02:00:26;;;;;;;17.05;8.68;;;1.20;99.90;;;-0.34;92.70;102900.31;4926172;28;20014;-77
2022/04/17 02:02:52;;;;;;;15.02;8.00;;;1.30;99.90;;;-0.33;93.15;102902.06;4956349;28;20041;-77
2022/04/17 02:05:18;;;;;;;17.77;7.95;;;1.80;99.90;;;-0.30;93.34;102894.41;4957044;23;20102;-76
2022/04/17 02:07:44;;;;;;;14.55;8.32;;;1.30;99.90;;;-0.26;93.80;102892.78;4980280;28;20505;-76
2022/04/17 02:10:14;;;;;;;17.27;7.93;;;1.30;99.90;;;-0.24;94.51;102892.03;4985084;28;20026;-76
2022/04/17 02:12:40;;;;;;;17.33;8.68;;;1.30;99.90;;;-0.20;94.53;102895.59;4949727;28;20124;-77
2022/04/17 02:15:07;;;;;;;17.48;7.75;;;1.40;99.90;;;-0.18;94.41;102890.47;4945660;28;20038;-77
2022/04/17 02:17:36;;;;;;;14.18;7.68;;;1.30;99.90;;;-0.23;94.63;102886.00;4961676;28;20036;-76
2022/04/17 02:20:02;;;;;;;11.93;7.05;;;1.30;99.90;;;-0.28;94.76;102887.59;4960216;28;20034;-76
2022/04/17 02:22:28;;;;;;;13.57;7.32;;;1.30;99.90;;;-0.32;93.68;102888.31;4950004;28;20382;-76
2022/04/17 02:24:53;;;;;;;17.80;7.65;;;1.20;99.90;;;-0.38;92.83;102882.06;4963620;28;20030;-77
2022/04/17 02:27:19;;;;;;;12.77;7.65;;;1.20;99.90;;;-0.44;92.03;102880.13;4956270;28;20110;-76
2022/04/17 02:29:45;;;;;;;13.73;6.43;;;1.10;99.90;;;-0.49;91.54;102874.81;4963767;28;20463;-77
2022/04/17 02:32:13;;;;;;;14.00;7.40;;;1.10;99.90;;;-0.54;90.65;102878.97;4949000;28;24914;-77
2022/04/17 02:34:39;;;;;;;12.25;7.10;;;1.00;99.90;;;-0.59;90.22;102877.03;4936618;28;20064;-77
2022/04/17 02:37:06;;;;;;;13.88;6.43;;;1.00;99.90;;;-0.65;89.97;102878.59;4940412;28;20193;-76
2022/04/17 02:39:33;;;;;;;15.52;7.00;;;0.90;99.90;;;-0.70;89.34;102874.94;4962777;28;20438;-76
2022/04/17 02:41:58;;;;;;;13.60;8.02;;;0.90;99.90;;;-0.75;89.24;102878.22;4965200;28;20022;-76
2022/04/17 02:44:26;;;;;;;16.67;9.02;;;0.80;99.90;;;-0.78;89.24;102884.16;4965039;28;20398;-76
2022/04/17 02:49:37;;;;;;;14.55;8.05;;;0.80;99.90;;;-0.84;89.94;102879.66;4972897;28;20064;-76
2022/04/17 02:52:04;;;;;;;12.80;7.53;;;0.80;99.90;;;-0.86;90.48;102872.69;4945361;28;20034;-76
2022/04/17 02:54:30;;;;;;;12.52;7.18;;;0.80;99.90;;;-0.88;91.04;102876.91;4948240;28;20437;-76
2022/04/17 02:56:58;;;;;;;13.02;6.68;;;0.70;99.90;;;-0.91;91.26;102876.78;4955293;28;21489;-76
2022/04/17 02:59:24;;;;;;;12.30;6.85;;;0.70;99.90;;;-0.95;92.03;102878.41;4963072;28;20690;-76
2022/04/17 03:07:22;;;;;;;8.30;5.55;;;0.60;99.90;;;-1.14;91.39;102882.03;4975198;23;20637;-76
2022/04/17 03:09:48;;;;;;;13.63;7.63;;;0.50;99.90;;;-1.16;91.39;102883.69;4937937;28;20041;-76
2022/04/17 03:12:14;;;;;;;14.00;8.13;;;0.50;99.90;;;-1.19;90.95;102880.09;4962237;28;20125;-76
2022/04/17 03:14:40;;;;;;;12.93;7.15;;;0.50;99.90;;;-1.20;91.52;102874.06;4946751;28;20038;-76
2022/04/17 03:17:06;;;;;;;12.27;7.25;;;0.50;99.90;;;-1.22;91.81;102873.13;4953974;28;20081;-76
2022/04/17 03:19:32;;;;;;;13.20;7.75;;;0.40;99.90;;;-1.23;91.65;102871.38;4941203;28;20172;-76
2022/04/17 03:21:58;;;;;;;18.23;8.45;;;0.40;99.90;;;-1.26;91.96;102877.28;4944439;28;20042;-76
2022/04/17 03:24:24;;;;;;;12.93;7.68;;;0.40;99.90;;;-1.27;91.94;102872.94;4924396;28;20049;-76
2022/04/17 03:26:49;;;;;;;14.57;8.18;;;0.40;99.90;;;-1.29;91.80;102876.31;4949772;28;20034;-76
2022/04/17 03:29:18;;;;;;;13.65;7.57;;;0.30;99.90;;;-1.29;91.80;102878.91;4939124;28;20478;-76
2022/04/17 03:31:44;;;;;;;14.98;7.25;;;0.30;99.90;;;-1.30;92.43;102877.13;4920844;28;20093;-76
2022/04/17 03:34:12;;;;;;;11.43;7.07;;;0.30;99.90;;;-1.32;92.82;102873.59;4927012;28;20122;-76
2022/04/17 03:36:39;;;;;;;12.38;7.55;;;0.30;99.90;;;-1.32;92.77;102878.75;4954640;28;20031;-76
2022/04/17 03:39:08;;;;;;;14.75;7.35;;;0.30;99.90;;;-1.33;92.80;102879.59;4915524;28;20094;-76
2022/04/17 03:41:35;;;;;;;14.15;8.10;;;0.30;99.90;;;-1.37;92.49;102883.75;4948445;28;20032;-76
2022/04/17 03:44:05;;;;;;;13.38;6.90;;;0.20;99.90;;;-1.40;93.37;102883.66;4915671;28;20491;-77
2022/04/17 03:46:33;;;;;;;12.68;7.35;;;0.20;99.90;;;-1.45;93.07;102883.50;4936943;28;20041;-76
2022/04/17 03:49:03;;;;;;;16.05;7.80;;;0.20;99.90;;;-1.50;92.50;102882.44;4918256;28;20055;-76
2022/04/17 03:51:29;;;;;;;16.02;8.80;;;0.10;99.90;;;-1.57;93.53;102879.56;4935670;28;20098;-77
2022/04/17 03:53:55;;;;;;;16.52;8.18;;;0.10;99.90;;;-1.58;95.37;102878.66;4938604;28;20041;-76
2022/04/17 03:56:20;;;;;;;20.27;9.25;;;0.10;99.90;;;-1.56;96.49;102871.84;4936578;28;20038;-76
2022/04/17 03:58:46;;;;;;;17.40;9.13;;;0.20;99.90;;;-1.49;97.52;102870.38;4923214;28;20033;-77
2022/04/17 04:01:12;;;;;;;16.67;8.93;;;0.20;99.90;;;-1.41;97.71;102870.69;4917014;28;20042;-77
2022/04/17 04:03:40;;;;;;;15.48;8.68;;;0.30;99.90;;;-1.35;97.67;102871.78;4923928;28;20117;-76
2022/04/17 04:06:06;;;;;;;14.77;8.32;;;0.30;99.90;;;-1.30;97.46;102865.06;4952856;28;20118;-76
2022/04/17 04:08:32;;;;;;;15.70;8.40;;;0.40;99.90;;;-1.23;97.50;102868.78;4953010;28;20026;-76
2022/04/17 04:10:57;;;;;;;15.98;7.43;;;0.40;99.90;;;-1.17;96.78;102857.75;4905859;28;20042;-76
2022/04/17 04:13:23;;;;;;;15.45;7.32;;;0.40;99.90;;;-1.13;96.73;102862.22;4911375;28;20522;-76
2022/04/17 04:15:49;;;;;;;14.65;8.00;;;0.40;99.90;;;-1.10;95.81;102860.63;4920335;28;20556;-76
2022/04/17 04:18:15;;;;;;;13.30;7.13;;;0.50;99.90;;;-1.06;95.18;102859.03;4936072;28;20441;-76
2022/04/17 04:20:40;;;;;;;14.68;7.55;;;0.50;99.90;;;-1.05;94.75;102863.38;4915085;28;20065;-76
2022/04/17 04:23:09;;;;;;;12.63;6.28;;;0.50;99.90;;;-1.01;94.46;102866.97;4923340;28;20027;-76
2022/04/17 04:25:36;;;;;;;11.45;6.63;;;0.50;99.90;;;-0.95;93.19;102867.16;4942381;28;20572;-76
2022/04/17 04:30:46;;;;;;;12.77;6.65;;;0.60;99.90;;;-0.80;92.08;102870.28;4950056;28;20081;-76
2022/04/17 04:33:12;;;;;;;10.75;6.18;;;0.70;99.90;;;-0.70;91.65;102872.34;4950897;28;20102;-77
2022/04/17 04:35:38;;;;;;;11.13;6.40;;;0.70;99.90;;;-0.56;90.75;102871.94;4936624;28;20030;-76
2022/04/17 04:38:05;;;;;;;16.42;6.50;;;0.90;99.90;;;-0.44;90.49;102873.22;4959178;28;20027;-77
2022/04/17 04:40:32;;;;;;;11.82;6.28;;;1.00;99.90;;;-0.29;89.76;102872.00;4945019;28;20101;-77
2022/04/17 04:43:03;;;;;;;11.13;6.55;;;1.10;99.90;;;-0.17;90.21;102867.22;4935898;28;20566;-76
2022/04/17 04:49:29;;;;;;;13.55;5.68;;;1.40;99.90;;;0.09;91.13;102877.53;4964157;28;20106;-76
2022/04/17 04:51:03;;;;;;;10.50;6.28;;;1.50;99.90;;;0.24;90.90;102878.00;4945559;28;20034;-76
2022/04/17 04:53:29;;;;;;;11.02;6.43;;;1.60;99.90;;;0.46;90.38;102878.63;4972905;28;20113;-76
2022/04/17 04:55:55;;;;;;;11.35;6.13;;;1.70;99.90;;;0.63;89.36;102873.91;4932199;28;20038;-76
2022/04/17 04:58:21;;;;;;;11.02;5.93;;;1.90;99.90;;;0.84;88.20;102869.34;4931807;28;20052;-76
2022/04/17 05:00:46;;;;;;;13.80;6.25;;;2.10;99.90;;;1.07;87.25;102876.91;4914596;28;20117;-76
2022/04/17 05:03:12;;;;;;;9.63;6.22;;;2.30;99.90;;;1.38;86.16;102873.38;4949198;28;20034;-76
2022/04/17 05:05:38;;;;;;;8.82;5.38;;;2.50;99.90;;;1.68;85.12;102872.41;4952581;28;20130;-76
2022/04/17 05:08:04;;;;;;;19.10;7.53;;;2.70;99.90;;;1.98;83.89;102880.91;4939401;28;20042;-76
2022/04/17 05:10:30;;;;;;;23.92;9.18;;;3.00;99.90;;;2.24;82.99;102880.66;4946501;28;20035;-76
2022/04/17 05:12:57;;;;;;;14.48;7.47;;;3.20;99.90;;;2.46;81.96;102871.59;4929707;28;20482;-77
2022/04/17 05:15:25;;;;;;;19.98;7.80;;;3.40;99.90;;;2.62;81.49;102871.06;4910465;28;20054;-76
2022/04/17 05:17:51;;;;;;;15.68;7.30;;;3.60;99.90;;;2.69;80.63;102876.41;4928293;28;20026;-77
2022/04/17 05:20:20;;;;;;;13.65;6.82;;;3.70;99.90;;;2.64;80.60;102868.53;4955928;28;20542;-76
2022/04/17 05:22:45;;;;;;;14.52;7.25;;;3.80;99.90;;;2.72;80.63;102872.16;4913863;28;20141;-76
2022/04/17 05:25:11;;;;;;;13.80;6.90;;;3.90;99.90;;;2.88;80.52;102870.72;4935799;28;20042;-77
2022/04/17 05:27:40;;;;;;;10.75;6.10;;;4.10;99.90;;;3.08;80.24;102858.97;4911367;28;20569;-77
2022/04/17 05:30:08;;;;;;;12.13;5.85;;;4.10;99.90;;;3.29;80.00;102865.41;4939630;28;20814;-76
2022/04/17 05:32:34;;;;;;;8.40;5.40;;;4.40;99.90;;;3.45;79.71;102867.41;4926751;28;20104;-76
2022/04/17 05:35:00;;;;;;;13.98;5.85;;;4.50;99.90;;;3.58;79.35;102863.28;4918437;28;20042;-76
2022/04/17 05:37:27;;;;;;;11.20;6.10;;;4.70;99.90;;;3.76;78.72;102861.84;4918660;28;20649;-77
2022/04/17 05:39:53;;;;;;;8.85;5.35;;;4.80;99.90;;;3.94;77.78;102866.47;4913326;28;20076;-77
2022/04/17 05:42:21;;;;;;;10.35;6.35;;;4.90;99.90;;;4.10;77.70;102873.66;4902426;28;20403;-77
2022/04/17 05:44:48;;;;;;;9.27;5.88;;;5.10;99.90;;;4.60;77.19;102867.38;4913513;28;20050;-76
2022/04/17 05:47:14;;;;;;;9.25;5.20;;;5.40;99.90;;;5.55;74.94;102877.13;4919833;28;20024;-77
2022/04/17 05:49:41;;;;;;;11.35;6.38;;;6.10;99.90;;;8.22;68.80;102863.09;4920261;28;20092;-76
2022/04/17 05:52:06;;;;;;;8.23;4.97;;;7.30;99.90;;;11.81;60.09;102861.25;4931332;28;20517;-76
2022/04/17 05:54:34;;;;;;;7.47;4.72;;;9.10;99.90;;;14.73;50.76;102875.63;4945816;28;20046;-77
2022/04/17 05:57:01;;;;;;;9.95;5.03;;;10.60;99.90;;;14.01;48.04;102882.91;4936534;28;20022;-78
2022/04/17 05:59:27;;;;;;;8.70;5.20;;;11.60;99.90;;;14.71;48.78;102889.84;4934720;28;20097;-77
2022/04/17 06:01:53;;;;;;;7.10;4.82;;;12.50;99.90;;;16.48;45.80;102906.13;4973694;28;20034;-77
2022/04/17 06:04:19;;;;;;;8.85;5.07;;;13.40;99.90;;;18.04;42.68;102917.66;4910900;28;20043;-77
2022/04/17 06:06:44;;;;;;;7.43;4.88;;;14.30;99.90;;;18.40;41.51;102941.00;4926736;28;20036;-77
2022/04/17 06:09:10;;;;;;;8.98;5.32;;;14.70;99.90;;;17.28;43.20;102932.38;4931511;28;20873;-78
2022/04/17 06:11:44;;;;;;;9.77;5.20;;;14.80;99.90;;;15.90;45.69;102938.28;4954179;28;20030;-78
2022/04/17 06:14:09;;;;;;;8.85;5.45;;;14.40;99.90;;;15.00;48.77;102934.03;4923122;28;20050;-77
2022/04/17 06:16:35;;;;;;;10.15;5.50;;;14.00;99.90;;;14.06;51.33;102935.75;4900118;28;20615;-78
2022/04/17 06:19:01;;;;;;;7.97;5.47;;;13.60;99.90;;;13.57;53.92;102937.88;4899635;28;20434;-78
2022/04/17 06:21:31;;;;;;;8.10;5.32;;;13.20;99.90;;;13.13;54.96;102939.72;4959084;28;20031;-78
2022/04/17 06:23:57;;;;;;;6.93;5.03;;;12.70;99.90;;;12.03;57.09;102933.09;4913513;28;20114;-78
2022/04/17 06:26:23;;;;;;;10.13;5.53;;;12.20;99.90;;;11.22;59.71;102939.63;4929382;28;20035;-78
2022/04/17 06:28:50;;;;;;;9.20;5.32;;;11.70;99.90;;;10.63;61.84;102940.34;4933710;28;20062;-78
2022/04/17 06:31:15;;;;;;;9.43;5.90;;;11.30;99.90;;;10.11;63.13;102937.34;4945525;28;20114;-78
2022/04/17 06:33:41;;;;;;;9.98;5.65;;;10.80;99.90;;;9.54;64.24;102929.94;4950050;28;20046;-78
2022/04/17 06:36:09;;;;;;;8.95;4.97;;;10.40;99.90;;;9.41;65.67;102931.75;4927831;28;20038;-78
2022/04/17 06:38:38;;;;;;;14.10;5.57;;;10.20;99.90;;;9.25;67.59;102923.09;4885820;28;20562;-78
2022/04/17 06:41:04;;;;;;;7.70;4.93;;;10.00;99.90;;;9.13;67.92;102917.91;4891915;28;20043;-79
2022/04/17 06:43:30;;;;;;;9.35;4.72;;;9.90;99.90;;;9.09;68.41;102921.44;4862913;28;20046;-78
2022/04/17 06:45:55;;;;;;;7.93;4.78;;;9.80;99.90;;;9.32;68.85;102908.16;4898814;28;20038;-78
2022/04/17 06:48:23;;;;;;;8.30;4.93;;;10.00;99.90;;;10.00;68.33;102909.38;4929223;28;20019;-78
2022/04/17 06:50:52;;;;;;;10.80;5.50;;;10.20;99.90;;;9.96;68.36;102902.41;4911240;28;20031;-79
2022/04/17 06:53:19;;;;;;;7.53;4.72;;;10.40;99.90;;;10.52;66.13;102883.41;4889105;28;20023;-78
2022/04/17 06:55:47;;;;;;;6.70;4.57;;;10.60;99.90;;;10.33;65.74;102886.25;4896350;28;20034;-79
2022/04/17 06:58:14;;;;;;;9.38;4.75;;;10.80;99.90;;;10.90;65.83;102882.06;4886899;28;20478;-78
2022/04/17 07:00:42;;;;;;;8.75;5.07;;;11.00;99.90;;;11.02;65.43;102882.75;4884752;28;20050;-78
2022/04/17 07:03:10;;;;;;;7.15;4.57;;;11.30;99.90;;;11.31;65.54;102884.09;4913629;28;20026;-78
2022/04/17 07:05:36;;;;;;;8.75;4.70;;;11.50;99.90;;;11.38;63.99;102884.84;4898705;28;20129;-78
2022/04/17 07:08:05;;;;;;;5.75;4.07;;;11.60;99.90;;;11.25;62.95;102881.53;4913383;28;20490;-79
2022/04/17 07:10:39;;;;;;;7.00;4.00;;;11.70;99.90;;;11.19;61.53;102876.38;4889979;28;20069;-78
2022/04/17 07:13:08;;;;;;;6.82;4.00;;;11.70;99.90;;;11.13;62.52;102881.75;4881210;28;20092;-78
2022/04/17 07:15:34;;;;;;;6.95;4.35;;;11.80;99.90;;;11.41;62.21;102879.56;4916569;28;20050;-78
2022/04/17 07:18:05;;;;;;;13.13;4.68;;;11.80;99.90;;;11.32;61.66;102874.41;4910088;28;20026;-78
2022/04/17 07:20:31;;;;;;;6.15;3.88;;;11.90;99.90;;;11.20;61.41;102867.56;4881739;28;20035;-78
2022/04/17 07:23:00;;;;;;;7.18;3.70;;;11.80;99.90;;;11.06;61.70;102867.78;4900535;28;20127;-78
2022/04/17 07:25:26;;;;;;;8.27;4.10;;;11.80;99.90;;;11.09;61.19;102871.22;4920250;28;20031;-78
2022/04/17 07:27:51;;;;;;;6.63;3.90;;;11.80;99.90;;;11.20;61.93;102865.78;4892659;28;20404;-78
2022/04/17 07:30:25;;;;;;;7.05;4.65;;;11.90;99.90;;;11.65;62.47;102873.00;4904791;28;20031;-78
2022/04/17 07:32:53;;;;;;;9.27;4.22;;;12.20;99.90;;;12.18;61.38;102872.94;4924702;28;20034;-78
2022/04/17 07:35:25;;;;;;;5.93;4.30;;;12.50;99.90;;;12.41;60.59;102873.38;4899969;28;20050;-78
2022/04/17 07:37:59;;;;;;;7.13;3.70;;;12.60;99.90;;;12.30;58.13;102870.09;4932840;28;20022;-78
2022/04/17 07:40:29;;;;;;;5.35;3.33;;;13.00;99.90;;;13.46;57.41;102874.63;4907793;28;20515;-78
2022/04/17 07:42:58;;;;;;;6.50;3.08;;;13.80;99.90;;;14.02;53.47;102871.41;4917780;28;20110;-79
2022/04/17 07:45:25;;;;;;;4.28;3.10;;;14.30;99.90;;;14.25;51.08;102869.91;4926729;28;20434;-78
2022/04/17 07:47:56;;;;;;;5.30;2.92;;;14.70;99.90;;;14.50;50.79;102867.44;4909883;28;20031;-78
2022/04/17 07:50:29;;;;;;;5.15;3.10;;;14.80;99.90;;;14.34;49.89;102875.84;4907041;28;20051;-78
2022/04/17 07:52:57;;;;;;;5.85;3.33;;;15.10;99.90;;;14.80;49.76;102871.00;4877591;28;24465;-77
2022/04/17 07:55:25;;;;;;;6.18;3.72;;;15.50;99.90;;;15.63;49.60;102878.94;4893732;28;20039;-78
2022/04/17 08:00:48;;;;;;;6.68;4.20;;;16.90;99.00;;;17.49;44.62;102881.81;4917676;28;20624;-78
2022/04/17 08:03:34;;;;;;;5.95;3.97;;;18.00;97.30;;;18.59;41.66;102876.97;4869090;28;20043;-78
2022/04/17 08:06:07;;;;;;;7.45;4.45;;;18.70;95.50;;;18.82;41.99;102889.28;4906468;28;20042;-79
2022/04/17 08:08:38;;;;;;;6.60;4.32;;;19.30;93.70;;;19.30;39.56;102897.66;4927815;28;20034;-78
2022/04/17 08:11:07;;;;;;;8.10;3.67;;;19.90;92.80;;;19.66;39.57;102908.34;4912702;28;20026;-78
2022/04/17 08:13:35;;;;;;;7.80;4.50;;;20.20;93.10;;;19.96;39.29;102905.06;4915746;28;20038;-79
2022/04/17 08:16:04;;;;;;;5.78;4.10;;;20.30;90.20;;;19.74;38.56;102916.00;4949067;28;20591;-78
2022/04/17 08:18:36;;;;;;;6.47;4.60;;;20.60;92.40;;;20.12;38.99;102920.31;4919455;28;20097;-77
2022/04/17 08:21:04;;;;;;;6.28;3.78;;;20.50;88.50;;;19.79;37.40;102934.47;4916916;28;20095;-76
2022/04/17 08:23:31;;;;;;;5.97;4.18;;;20.40;86.90;;;19.41;37.56;102938.06;4913274;28;20038;-76
2022/04/17 08:26:05;;;;;;;5.10;4.00;;;20.30;91.00;;;19.42;39.64;102930.94;4927355;28;20022;-76
2022/04/17 08:28:32;;;;;;;6.22;3.90;;;20.00;87.00;;;19.13;37.98;102935.88;4918567;28;20422;-77
2022/04/17 08:30:58;;;;;;;5.68;4.25;;;19.90;88.60;;;19.19;38.69;102934.72;4918626;28;20101;-76
2022/04/17 08:33:26;;;;;;;7.60;3.80;;;19.90;89.60;;;19.22;38.90;102931.91;4928671;28;20046;-76
2022/04/17 08:35:57;;;;;;;7.28;4.20;;;19.90;90.40;;;19.17;39.42;102928.59;4921251;28;20030;-77
2022/04/17 08:38:23;;;;;;;8.25;4.22;;;19.50;90.60;;;18.61;39.84;102941.81;4923393;28;20030;-76
2022/04/17 08:40:50;;;;;;;4.47;3.45;;;19.20;90.00;;;18.15;39.80;102941.19;4899784;28;20062;-77
2022/04/17 08:43:18;;;;;;;7.00;4.55;;;19.00;90.20;;;18.10;40.60;102931.66;4929940;28;20109;-77
2022/04/17 08:45:49;;;;;;;7.78;4.20;;;18.90;91.60;;;18.12;40.82;102929.78;4919807;28;20049;-77
2022/04/17 08:48:15;;;;;;;5.55;4.00;;;18.50;91.70;;;17.49;41.57;102927.09;4924929;28;20028;-77
2022/04/17 08:50:42;;;;;;;6.57;3.97;;;18.20;92.10;;;17.15;43.30;102931.13;4924766;28;20397;-77
2022/04/17 08:53:09;;;;;;;5.50;4.53;;;18.00;90.50;;;17.29;41.17;102938.53;4915781;28;20038;-77
2022/04/17 08:55:35;;;;;;;6.63;4.70;;;17.80;91.90;;;16.98;42.90;102937.09;4916559;28;20042;-77
2022/04/17 08:58:04;;;;;;;7.20;4.85;;;17.40;92.40;;;16.52;43.85;102936.09;4917315;28;20022;-77
2022/04/17 09:00:30;;;;;;;6.80;4.72;;;17.10;93.60;;;16.16;45.36;102942.69;4923180;28;20031;-77
2022/04/17 09:02:55;;;;;;;7.53;4.70;;;16.90;93.60;;;15.99;45.50;102940.63;4921124;28;20046;-77
2022/04/17 09:05:21;;;;;;;5.95;4.80;;;16.40;93.00;;;14.91;46.38;102926.38;4941703;28;20415;-76
2022/04/17 09:07:56;;;;;;;6.25;4.68;;;15.90;93.30;;;14.39;47.37;102923.41;4937879;28;20085;-76
2022/04/17 09:10:31;;;;;;;7.53;4.65;;;15.90;94.70;;;14.69;47.76;102926.13;4942261;28;20106;-77
2022/04/17 09:13:04;;;;;;;5.80;4.30;;;15.70;94.90;;;14.47;48.75;102934.66;4881498;28;20026;-78
2022/04/17 09:15:39;;;;;;;8.98;5.63;;;15.50;94.80;;;14.27;48.32;102926.38;4898440;28;20042;-77
2022/04/17 09:18:08;;;;;;;8.93;6.18;;;14.90;94.60;;;13.48;49.28;102909.00;4941204;28;20034;-77
2022/04/17 09:20:34;;;;;;;6.97;5.10;;;14.80;96.50;;;13.56;51.22;102911.44;4902780;28;20039;-77
2022/04/17 09:23:01;;;;;;;8.88;5.00;;;15.00;96.00;;;14.01;49.49;102908.53;4918751;28;20029;-79
2022/04/17 09:25:33;;;;;;;8.05;5.60;;;14.90;96.30;;;13.87;49.07;102908.91;4922006;28;20088;-78
2022/04/17 09:28:05;;;;;;;9.73;5.60;;;15.00;95.80;;;13.95;48.78;102902.50;4937485;28;20045;-78
2022/04/17 09:30:33;;;;;;;9.10;5.45;;;14.80;95.10;;;13.67;48.95;102904.97;4953438;28;20058;-79
2022/04/17 09:33:10;;;;;;;10.88;6.80;;;14.40;94.80;;;12.92;49.49;102898.75;4938532;28;20621;-79
2022/04/17 09:35:39;;;;;;;8.45;5.70;;;14.20;97.50;;;12.77;52.45;102905.25;4938132;28;20054;-79
2022/04/17 09:38:08;;;;;;;7.18;5.05;;;14.30;98.30;;;12.96;51.60;102896.91;4928075;28;20113;-79
2022/04/17 09:40:37;;;;;;;9.80;4.85;;;14.10;97.00;;;12.75;51.04;102896.47;4923448;28;20847;-79
2022/04/17 09:43:16;;;;;;;7.65;4.18;;;14.00;96.00;;;12.58;49.65;102894.19;4917717;28;20027;-79
2022/04/17 09:46:03;;;;;;;8.18;4.43;;;13.70;95.30;;;12.08;51.11;102893.41;4945386;28;20022;-78
2022/04/17 09:48:34;;;;;;;9.43;5.43;;;13.60;97.70;;;12.36;52.39;102903.44;4893459;28;20102;-79
2022/04/17 09:51:18;;;;;;;8.57;5.43;;;13.60;98.60;;;12.46;53.26;102905.88;4894781;28;20030;-78
2022/04/17 09:53:58;;;;;;;6.82;4.63;;;13.70;98.00;;;12.59;52.53;102897.69;4931697;28;20046;-79
2022/04/17 09:57:03;;;;;;;6.85;5.10;;;13.80;98.30;;;12.78;51.74;102899.03;4903247;28;20152;-79
2022/04/17 09:59:29;;;;;;;9.68;4.95;;;14.10;98.50;;;13.09;52.63;102896.63;4928697;28;20131;-79
2022/04/17 10:01:57;;;;;;;10.95;4.15;;;13.80;96.10;;;12.27;50.42;102889.50;4933367;28;20050;-79
2022/04/17 10:04:28;;;;;;;7.15;4.82;;;13.80;97.10;;;12.55;51.29;102888.06;4931656;28;20034;-79
2022/04/17 10:07:04;;;;;;;8.30;5.45;;;13.90;96.80;;;12.96;51.30;102887.22;4928840;28;20073;-80
2022/04/17 10:09:31;;;;;;;8.00;5.00;;;14.10;97.50;;;13.21;50.74;102884.00;4887336;28;20141;-80
2022/04/17 10:11:59;;;;;;;8.10;4.80;;;14.20;96.10;;;13.18;49.41;102881.44;4901262;28;20022;-79
2022/04/17 10:14:28;;;;;;;7.95;5.10;;;14.20;95.90;;;13.06;49.45;102885.22;4931869;28;20108;-79
2022/04/17 10:16:58;;;;;;;7.43;4.72;;;14.20;97.50;;;12.96;51.10;102889.88;4917782;28;20529;-79
2022/04/17 10:19:27;;;;;;;9.57;6.07;;;14.10;98.00;;;12.91;52.68;102889.06;4909784;28;20567;-80
2022/04/17 10:21:57;;;;;;;8.02;5.82;;;14.30;99.10;;;13.40;53.30;102889.78;4920888;28;20097;-79
2022/04/17 10:24:28;;;;;;;7.45;5.00;;;14.50;97.60;;;13.45;50.74;102877.28;4948381;28;20934;-78
2022/04/17 10:26:54;;;;;;;8.82;5.10;;;14.50;96.40;;;13.30;50.03;102879.41;4900448;28;20026;-79
2022/04/17 10:29:42;;;;;;;9.88;5.78;;;14.50;95.50;;;13.18;49.72;102877.00;4935967;28;20042;-80
2022/04/17 10:32:32;;;;;;;5.57;3.95;;;14.30;96.30;;;12.92;49.53;102867.91;4930581;28;20043;-79
2022/04/17 10:35:26;;;;;;;10.00;6.72;;;14.10;96.50;;;12.78;51.16;102869.97;4917721;28;20130;-79
2022/04/17 10:38:22;;;;;;;7.57;5.70;;;14.00;97.00;;;12.97;51.20;102861.63;4909910;28;20430;-78
2022/04/17 10:40:54;;;;;;;7.63;5.18;;;14.10;96.80;;;12.88;50.64;102860.94;4952511;28;20096;-79
2022/04/17 10:43:24;;;;;;;7.47;4.68;;;14.20;98.10;;;13.08;51.54;102854.31;4929483;28;20018;-78